createdAt,value
2022-10-07T00:00:52.297Z,13.38
2022-10-07T00:03:25.797Z,13.43
2022-10-07T00:06:10.807Z,13.48
2022-10-07T00:08:38.959Z,13.44
2022-10-07T00:11:08.598Z,13.25
2022-10-07T00:13:38.744Z,13.19
2022-10-07T00:16:13.825Z,13.12
2022-10-07T00:18:41.780Z,13.23
2022-10-07T00:21:11.877Z,13.22
2022-10-07T00:23:39.497Z,13.08
2022-10-07T00:26:08.951Z,13.16
2022-10-07T00:28:36.423Z,13.19
2022-10-07T00:31:06.505Z,13.25
2022-10-07T00:33:36.668Z,13.17
2022-10-07T00:36:11.489Z,13.18
2022-10-07T00:38:38.869Z,13.20
2022-10-07T00:41:06.884Z,13.17
2022-10-07T00:43:34.093Z,13.33
2022-10-07T00:46:07.803Z,13.28
2022-10-07T00:48:36.542Z,13.28
2022-10-07T00:51:03.326Z,13.13
2022-10-07T00:53:33.123Z,13.02
2022-10-07T00:56:02.768Z,12.97
2022-10-07T00:58:32.394Z,13.07
2022-10-07T01:00:59.287Z,13.03
2022-10-07T01:03:26.126Z,12.96
2022-10-07T01:05:54.678Z,13.00
2022-10-07T01:08:22.963Z,12.87
2022-10-07T01:11:13.892Z,13.00
2022-10-07T01:14:24.070Z,13.07
2022-10-07T01:16:53.647Z,12.92
2022-10-07T01:19:53.141Z,13.02
2022-10-07T01:22:40.628Z,12.98
2022-10-07T01:25:33.476Z,13.03
2022-10-07T01:28:12.448Z,12.97
2022-10-07T01:30:46.689Z,12.97
2022-10-07T01:33:21.752Z,12.92
2022-10-07T01:35:51.123Z,13.03
2022-10-07T01:38:19.817Z,12.82
2022-10-07T01:40:51.987Z,12.87
2022-10-07T01:43:22.040Z,12.77
2022-10-07T01:45:52.085Z,12.77
2022-10-07T01:48:18.782Z,12.78
2022-10-07T01:50:46.968Z,12.80
2022-10-07T01:53:15.224Z,12.71
2022-10-07T01:55:48.129Z,12.70
2022-10-07T01:58:49.695Z,12.86
2022-10-07T02:01:22.906Z,12.80
2022-10-07T02:04:05.194Z,12.88
2022-10-07T02:06:40.180Z,12.81
2022-10-07T02:09:36.772Z,12.84
2022-10-07T02:12:17.682Z,12.85
2022-10-07T02:15:00.497Z,12.98
2022-10-07T02:17:29.524Z,13.02
2022-10-07T02:19:56.527Z,12.94
2022-10-07T02:22:28.306Z,13.03
2022-10-07T02:24:59.130Z,12.93
2022-10-07T02:27:36.969Z,12.74
2022-10-07T02:30:10.284Z,12.76
2022-10-07T02:32:41.153Z,12.86
2022-10-07T02:35:17.371Z,12.70
2022-10-07T02:37:48.020Z,12.64
2022-10-07T02:40:15.213Z,12.66
2022-10-07T02:43:00.752Z,12.55
2022-10-07T02:45:37.481Z,12.56
2022-10-07T02:48:18.880Z,12.51
2022-10-07T02:50:49.760Z,12.60
2022-10-07T02:53:18.018Z,12.71
2022-10-07T02:55:48.696Z,12.75
2022-10-07T02:58:16.834Z,12.69
2022-10-07T03:00:50.872Z,12.62
2022-10-07T03:03:17.650Z,12.65
2022-10-07T03:05:54.962Z,12.72
2022-10-07T03:08:23.960Z,12.71
2022-10-07T03:10:51.325Z,12.71
2022-10-07T03:13:18.453Z,12.69
2022-10-07T03:15:51.895Z,12.56
2022-10-07T03:18:26.432Z,12.58
2022-10-07T03:21:00.148Z,12.54
2022-10-07T03:23:29.150Z,12.54
2022-10-07T03:25:58.112Z,12.43
2022-10-07T03:28:26.909Z,12.57
2022-10-07T03:30:54.883Z,12.64
2022-10-07T03:33:25.666Z,12.67
2022-10-07T03:35:53.840Z,12.72
2022-10-07T03:38:21.335Z,12.68
2022-10-07T03:40:48.016Z,12.58
2022-10-07T03:43:14.678Z,12.46
2022-10-07T03:45:45.599Z,12.43
2022-10-07T03:48:12.601Z,12.41
2022-10-07T03:50:39.582Z,12.54
2022-10-07T03:53:06.208Z,12.50
2022-10-07T03:55:32.777Z,12.48
2022-10-07T03:57:59.961Z,12.50
2022-10-07T04:00:28.904Z,12.52
2022-10-07T04:02:57.938Z,12.45
2022-10-07T04:05:24.648Z,12.42
2022-10-07T04:07:52.175Z,12.37
2022-10-07T04:10:20.382Z,12.32
2022-10-07T04:12:48.878Z,12.28
2022-10-07T04:15:15.807Z,12.29
2022-10-07T04:17:45.661Z,12.35
2022-10-07T04:20:15.575Z,12.35
2022-10-07T04:22:43.263Z,12.47
2022-10-07T04:25:30.921Z,12.42
2022-10-07T04:28:01.695Z,12.25
2022-10-07T04:30:33.714Z,12.27
2022-10-07T04:33:04.120Z,12.14
2022-10-07T04:35:31.680Z,12.02
2022-10-07T04:37:58.642Z,12.00
2022-10-07T04:40:28.122Z,11.99
2022-10-07T04:43:13.911Z,12.03
2022-10-07T04:45:40.699Z,12.07
2022-10-07T04:48:08.482Z,12.05
2022-10-07T04:50:40.570Z,11.96
2022-10-07T04:53:10.646Z,12.10
2022-10-07T04:55:39.826Z,11.97
2022-10-07T04:58:07.417Z,11.88
2022-10-07T05:00:35.811Z,12.01
2022-10-07T05:03:03.347Z,12.08
2022-10-07T05:05:30.054Z,12.10
2022-10-07T05:07:56.793Z,12.16
2022-10-07T05:10:25.672Z,12.17
2022-10-07T05:12:55.866Z,12.10
2022-10-07T05:15:23.546Z,12.02
2022-10-07T05:17:51.711Z,11.96
2022-10-07T05:20:18.433Z,11.92
2022-10-07T05:22:45.148Z,11.88
2022-10-07T05:25:11.744Z,11.86
2022-10-07T05:27:38.989Z,12.02
2022-10-07T05:30:07.310Z,12.05
2022-10-07T05:32:33.824Z,11.92
2022-10-07T05:35:01.733Z,12.04
2022-10-07T05:37:28.335Z,12.06
2022-10-07T05:39:55.045Z,11.99
2022-10-07T05:42:22.614Z,11.92
2022-10-07T05:44:55.906Z,12.05
2022-10-07T05:47:22.767Z,12.02
2022-10-07T05:49:51.480Z,11.99
2022-10-07T05:52:19.429Z,11.90
2022-10-07T05:54:46.616Z,12.00
2022-10-07T05:57:13.922Z,11.99
2022-10-07T05:59:42.505Z,11.83
2022-10-07T06:02:14.519Z,11.87
2022-10-07T06:04:43.285Z,11.81
2022-10-07T06:07:11.186Z,11.85
2022-10-07T06:09:57.412Z,11.87
2022-10-07T06:12:42.867Z,11.75
2022-10-07T06:15:13.166Z,11.90
2022-10-07T06:17:44.789Z,12.02
2022-10-07T06:20:15.086Z,11.92
2022-10-07T06:22:44.120Z,12.01
2022-10-07T06:25:12.048Z,11.99
2022-10-07T06:27:38.700Z,11.78
2022-10-07T06:30:05.982Z,11.88
2022-10-07T06:32:32.671Z,11.85
2022-10-07T06:34:59.931Z,11.87
2022-10-07T06:37:30.796Z,11.97
2022-10-07T06:39:59.750Z,11.89
2022-10-07T06:42:28.470Z,11.86
2022-10-07T06:45:17.676Z,11.95
2022-10-07T06:47:45.138Z,11.98
2022-10-07T06:50:12.940Z,12.13
2022-10-07T06:52:43.291Z,12.15
2022-10-07T06:55:11.474Z,12.29
2022-10-07T06:57:45.633Z,12.29
2022-10-07T07:00:14.174Z,12.34
2022-10-07T07:02:41.290Z,12.42
2022-10-07T07:05:08.971Z,12.59
2022-10-07T07:07:37.074Z,12.58
2022-10-07T07:10:03.949Z,12.64
2022-10-07T07:12:33.217Z,12.61
2022-10-07T07:15:00.284Z,12.71
2022-10-07T07:17:26.885Z,12.79
2022-10-07T07:19:53.713Z,12.67
2022-10-07T07:22:20.220Z,12.75
2022-10-07T07:24:48.741Z,12.73
2022-10-07T07:27:15.627Z,12.73
2022-10-07T07:29:43.474Z,12.81
2022-10-07T07:32:10.964Z,12.77
2022-10-07T07:34:41.324Z,12.91
2022-10-07T07:37:10.841Z,12.79
2022-10-07T07:39:44.447Z,12.80
2022-10-07T07:42:14.560Z,12.80
2022-10-07T07:44:41.317Z,12.88
2022-10-07T07:47:10.771Z,12.87
2022-10-07T07:49:38.426Z,12.93
2022-10-07T07:52:08.418Z,12.98
2022-10-07T07:54:41.875Z,13.08
2022-10-07T07:57:08.684Z,13.09
2022-10-07T07:59:37.339Z,13.06
2022-10-07T08:02:06.131Z,13.19
2022-10-07T08:04:33.728Z,13.22
2022-10-07T08:07:00.715Z,13.29
2022-10-07T08:09:28.316Z,13.37
2022-10-07T08:11:56.218Z,13.32
2022-10-07T08:14:23.417Z,13.43
2022-10-07T08:16:51.968Z,13.54
2022-10-07T08:19:19.347Z,13.58
2022-10-07T08:21:46.077Z,13.72
2022-10-07T08:24:17.557Z,13.79
2022-10-07T08:26:44.671Z,13.81
2022-10-07T08:29:13.529Z,13.91
2022-10-07T08:31:42.363Z,14.08
2022-10-07T08:34:10.301Z,13.92
2022-10-07T08:36:37.445Z,13.97
2022-10-07T08:39:04.710Z,14.08
2022-10-07T08:41:34.243Z,14.18
2022-10-07T08:44:16.660Z,14.36
2022-10-07T08:46:54.389Z,14.46
2022-10-07T08:49:32.619Z,14.38
2022-10-07T08:52:32.711Z,14.45
2022-10-07T08:55:04.105Z,14.28
2022-10-07T08:57:54.801Z,14.19
2022-10-07T09:00:24.810Z,14.35
2022-10-07T09:03:13.229Z,14.39
2022-10-07T09:05:44.536Z,14.61
2022-10-07T09:08:37.539Z,14.59
2022-10-07T09:11:16.995Z,14.60
2022-10-07T09:13:58.012Z,14.62
2022-10-07T09:16:35.908Z,14.71
2022-10-07T09:19:04.017Z,14.78
2022-10-07T09:21:42.381Z,14.82
2022-10-07T09:24:23.124Z,14.79
2022-10-07T09:26:54.166Z,14.87
2022-10-07T09:29:24.357Z,14.88
2022-10-07T09:31:51.009Z,15.07
2022-10-07T09:34:24.956Z,15.33
2022-10-07T09:37:13.020Z,15.34
2022-10-07T09:39:40.878Z,15.18
2022-10-07T09:42:28.698Z,15.27
2022-10-07T09:44:58.782Z,15.15
2022-10-07T09:47:29.136Z,15.27
2022-10-07T09:49:59.672Z,15.38
2022-10-07T09:52:31.639Z,15.40
2022-10-07T09:55:31.670Z,15.67
2022-10-07T09:58:04.058Z,16.06
2022-10-07T10:00:31.025Z,16.49
2022-10-07T10:03:00.157Z,16.92
2022-10-07T10:05:33.205Z,17.13
2022-10-07T10:08:03.342Z,17.28
2022-10-07T10:10:35.008Z,17.36
2022-10-07T10:13:04.624Z,17.23
2022-10-07T10:15:44.389Z,16.90
2022-10-07T10:18:36.347Z,16.75
2022-10-07T10:21:40.733Z,16.63
2022-10-07T10:24:16.832Z,16.56
2022-10-07T10:26:53.738Z,16.42
2022-10-07T10:29:27.921Z,16.22
2022-10-07T10:32:00.482Z,16.14
2022-10-07T10:34:48.337Z,16.35
2022-10-07T10:37:32.163Z,16.56
2022-10-07T10:40:19.066Z,16.45
2022-10-07T10:43:06.777Z,16.31
2022-10-07T10:46:01.955Z,16.35
2022-10-07T10:48:34.453Z,16.27
2022-10-07T10:51:16.901Z,16.29
2022-10-07T10:54:10.252Z,16.45
2022-10-07T10:56:55.015Z,16.49
2022-10-07T10:59:44.684Z,16.57
2022-10-07T11:02:14.261Z,16.57
2022-10-07T11:04:50.122Z,16.66
2022-10-07T11:08:01.683Z,16.69
2022-10-07T11:10:46.519Z,16.78
2022-10-07T11:13:13.075Z,16.75
2022-10-07T11:15:45.724Z,16.71
2022-10-07T11:18:21.726Z,16.60
2022-10-07T11:20:50.249Z,16.61
2022-10-07T11:23:37.540Z,16.61
2022-10-07T11:26:23.787Z,16.64
2022-10-07T11:28:51.899Z,16.62
2022-10-07T11:31:32.447Z,16.77
2022-10-07T11:34:18.432Z,16.80
2022-10-07T11:36:52.023Z,16.97
2022-10-07T11:39:18.998Z,16.81
2022-10-07T11:42:04.060Z,16.82
2022-10-07T11:44:37.325Z,16.91
2022-10-07T11:47:11.231Z,16.87
2022-10-07T11:49:44.849Z,17.05
2022-10-07T11:52:37.199Z,17.23
2022-10-07T11:55:15.952Z,17.15
2022-10-07T11:57:43.566Z,17.13
2022-10-07T12:00:30.260Z,17.13
2022-10-07T12:03:11.154Z,17.09
2022-10-07T12:05:37.760Z,17.14
2022-10-07T12:08:29.313Z,17.26
2022-10-07T12:11:15.875Z,17.17
2022-10-07T12:13:47.615Z,17.32
2022-10-07T12:16:23.369Z,17.31
2022-10-07T12:19:06.176Z,17.22
2022-10-07T12:22:16.143Z,17.10
2022-10-07T12:24:45.896Z,17.14
2022-10-07T12:27:24.727Z,17.21
2022-10-07T12:30:02.236Z,17.22
2022-10-07T12:32:51.013Z,17.30
2022-10-07T12:35:34.446Z,17.28
2022-10-07T12:38:28.582Z,17.19
2022-10-07T12:41:17.757Z,17.16
2022-10-07T12:43:49.896Z,17.24
2022-10-07T12:46:19.867Z,17.47
2022-10-07T12:49:04.941Z,17.32
2022-10-07T12:51:39.317Z,17.23
2022-10-07T12:54:51.431Z,17.17
2022-10-07T12:57:21.268Z,17.22
2022-10-07T13:00:07.976Z,17.40
2022-10-07T13:03:08.452Z,17.38
2022-10-07T13:05:37.903Z,17.54
2022-10-07T13:08:33.026Z,17.53
2022-10-07T13:11:30.525Z,17.63
2022-10-07T13:14:03.262Z,17.61
2022-10-07T13:16:38.695Z,17.70
2022-10-07T13:19:23.966Z,17.80
2022-10-07T13:22:09.381Z,17.92
2022-10-07T13:24:40.463Z,17.86
2022-10-07T13:27:09.796Z,17.88
2022-10-07T13:29:38.650Z,17.83
2022-10-07T13:32:09.718Z,17.90
2022-10-07T13:34:36.589Z,17.65
2022-10-07T13:37:23.626Z,17.88
2022-10-07T13:39:50.182Z,17.94
2022-10-07T13:42:21.130Z,18.02
2022-10-07T13:44:48.082Z,17.96
2022-10-07T13:47:20.360Z,17.98
2022-10-07T13:49:51.115Z,18.15
2022-10-07T13:52:31.518Z,18.16
2022-10-07T13:54:58.174Z,18.09
2022-10-07T13:57:29.108Z,18.09
2022-10-07T13:59:56.590Z,18.10
2022-10-07T14:02:23.336Z,18.10
2022-10-07T14:04:56.396Z,18.11
2022-10-07T14:07:23.176Z,18.17
2022-10-07T14:09:58.679Z,18.22
2022-10-07T14:12:33.281Z,18.38
2022-10-07T14:15:06.259Z,18.30
2022-10-07T14:17:47.309Z,18.33
2022-10-07T14:20:40.885Z,18.29
2022-10-07T14:23:33.724Z,18.55
2022-10-07T14:26:04.077Z,18.69
2022-10-07T14:28:35.579Z,18.73
2022-10-07T14:31:26.993Z,18.89
2022-10-07T14:34:15.609Z,19.04
2022-10-07T14:37:01.355Z,19.10
2022-10-07T14:39:38.565Z,18.92
2022-10-07T14:42:10.209Z,18.76
2022-10-07T14:44:37.257Z,19.07
2022-10-07T14:47:04.665Z,19.26
2022-10-07T14:49:31.627Z,19.14
2022-10-07T14:51:59.346Z,19.28
2022-10-07T14:54:26.752Z,19.28
2022-10-07T14:56:53.321Z,19.16
2022-10-07T14:59:20.020Z,19.12
2022-10-07T15:01:46.992Z,19.19
2022-10-07T15:04:13.669Z,19.20
2022-10-07T15:06:40.661Z,19.26
2022-10-07T15:09:09.398Z,19.27
2022-10-07T15:11:36.029Z,19.12
2022-10-07T15:14:02.984Z,18.99
2022-10-07T15:16:29.764Z,18.80
2022-10-07T15:18:56.376Z,18.58
2022-10-07T15:21:23.461Z,18.61
2022-10-07T15:23:53.979Z,18.51
2022-10-07T15:26:24.411Z,18.61
2022-10-07T15:28:56.967Z,18.53
2022-10-07T15:31:26.539Z,18.58
2022-10-07T15:33:57.494Z,18.64
2022-10-07T15:36:25.366Z,18.67
2022-10-07T15:38:51.914Z,18.66
2022-10-07T15:41:37.216Z,18.73
2022-10-07T15:44:18.197Z,18.82
2022-10-07T15:46:47.454Z,18.76
2022-10-07T15:49:14.809Z,18.76
2022-10-07T15:51:41.470Z,18.67
2022-10-07T15:54:09.151Z,18.60
2022-10-07T15:56:35.935Z,18.60
2022-10-07T15:59:02.803Z,18.62
2022-10-07T16:01:31.933Z,18.76
2022-10-07T16:04:00.351Z,18.68
2022-10-07T16:06:31.241Z,18.61
2022-10-07T16:08:58.341Z,18.61
2022-10-07T16:11:26.725Z,18.69
2022-10-07T16:13:53.399Z,18.62
2022-10-07T16:16:22.847Z,18.74
2022-10-07T16:18:52.105Z,18.69
2022-10-07T16:21:24.156Z,18.79
2022-10-07T16:23:54.442Z,18.79
2022-10-07T16:26:24.517Z,18.77
2022-10-07T16:29:11.162Z,18.72
2022-10-07T16:31:43.011Z,18.75
2022-10-07T16:34:11.396Z,18.49
2022-10-07T16:36:42.109Z,18.41
2022-10-07T16:39:11.592Z,18.31
2022-10-07T16:41:41.490Z,18.28
2022-10-07T16:44:08.306Z,18.25
2022-10-07T16:46:34.890Z,18.11
2022-10-07T16:49:04.648Z,17.95
2022-10-07T16:51:36.091Z,17.87
2022-10-07T16:54:05.907Z,17.82
2022-10-07T16:56:35.090Z,17.79
2022-10-07T16:59:06.138Z,17.76
2022-10-07T17:01:33.253Z,17.71
2022-10-07T17:04:01.336Z,17.62
2022-10-07T17:06:30.205Z,17.60
2022-10-07T17:08:59.792Z,17.50
2022-10-07T17:11:29.562Z,17.44
2022-10-07T17:14:01.959Z,17.38
2022-10-07T17:16:32.592Z,17.28
2022-10-07T17:18:59.706Z,17.13
2022-10-07T17:21:26.323Z,17.17
2022-10-07T17:23:58.097Z,17.01
2022-10-07T17:26:26.794Z,16.92
2022-10-07T17:29:13.647Z,16.95
2022-10-07T17:31:48.089Z,16.92
2022-10-07T17:34:19.252Z,16.87
2022-10-07T17:36:45.972Z,16.84
2022-10-07T17:39:12.575Z,16.81
2022-10-07T17:41:39.392Z,16.81
2022-10-07T17:44:11.545Z,16.79
2022-10-07T17:46:39.608Z,16.74
2022-10-07T17:49:08.375Z,16.71
2022-10-07T17:51:36.932Z,16.69
2022-10-07T17:54:05.811Z,16.69
2022-10-07T17:56:32.910Z,16.67
2022-10-07T17:58:59.606Z,16.65
2022-10-07T18:01:28.710Z,16.56
2022-10-07T18:03:57.814Z,16.52
2022-10-07T18:06:28.725Z,16.44
2022-10-07T18:08:55.862Z,16.48
2022-10-07T18:11:22.413Z,16.47
2022-10-07T18:14:07.508Z,16.39
2022-10-07T18:16:35.663Z,16.51
2022-10-07T18:19:02.527Z,16.50
2022-10-07T18:21:30.986Z,16.40
2022-10-07T18:23:57.989Z,16.30
2022-10-07T18:26:24.771Z,16.28
2022-10-07T18:28:51.443Z,16.29
2022-10-07T18:31:19.662Z,16.21
2022-10-07T18:33:46.512Z,16.25
2022-10-07T18:36:19.166Z,16.23
2022-10-07T18:38:45.965Z,16.20
2022-10-07T18:41:15.783Z,16.12
2022-10-07T18:43:45.269Z,16.12
2022-10-07T18:46:15.942Z,16.08
2022-10-07T18:48:44.983Z,15.96
2022-10-07T18:51:13.193Z,16.02
2022-10-07T18:53:42.792Z,15.98
2022-10-07T18:56:21.642Z,15.87
2022-10-07T18:58:50.789Z,15.82
2022-10-07T19:01:26.697Z,15.86
2022-10-07T19:04:01.113Z,15.87
2022-10-07T19:06:29.927Z,15.89
2022-10-07T19:08:58.925Z,15.91
2022-10-07T19:11:26.012Z,15.90
2022-10-07T19:13:58.123Z,15.86
2022-10-07T19:16:36.152Z,15.81
2022-10-07T19:19:06.255Z,15.82
2022-10-07T19:21:34.175Z,15.66
2022-10-07T19:24:01.628Z,15.65
2022-10-07T19:26:31.541Z,15.66
2022-10-07T19:28:58.273Z,15.74
2022-10-07T19:31:30.777Z,15.78
2022-10-07T19:34:02.771Z,15.75
2022-10-07T19:36:31.857Z,15.76
2022-10-07T19:38:58.823Z,15.76
2022-10-07T19:41:30.905Z,15.80
2022-10-07T19:43:58.497Z,15.83
2022-10-07T19:46:28.980Z,15.85
2022-10-07T19:48:58.228Z,15.89
2022-10-07T19:51:27.071Z,15.88
2022-10-07T19:53:53.951Z,15.94
2022-10-07T19:56:23.280Z,15.98
2022-10-07T19:58:55.401Z,16.05
2022-10-07T20:01:24.396Z,16.01
2022-10-07T20:04:03.139Z,15.99
2022-10-07T20:06:30.156Z,15.99
2022-10-07T20:08:57.193Z,15.98
2022-10-07T20:11:24.974Z,15.94
2022-10-07T20:13:53.511Z,15.92
2022-10-07T20:16:23.570Z,15.87
2022-10-07T20:18:58.351Z,15.88
2022-10-07T20:21:24.908Z,15.87
2022-10-07T20:23:53.751Z,15.68
2022-10-07T20:26:26.268Z,15.74
2022-10-07T20:28:58.006Z,15.76
2022-10-07T20:31:27.217Z,15.80
2022-10-07T20:33:55.790Z,15.79
2022-10-07T20:36:30.429Z,15.72
2022-10-07T20:39:46.341Z,15.80
2022-10-07T20:42:21.775Z,15.81
2022-10-07T20:44:49.545Z,15.84
2022-10-07T20:47:16.744Z,15.82
2022-10-07T20:49:43.378Z,15.72
2022-10-07T20:52:13.886Z,15.72
2022-10-07T20:54:40.534Z,15.70
2022-10-07T20:57:07.090Z,15.69
2022-10-07T20:59:33.726Z,15.64
2022-10-07T21:02:03.823Z,15.69
2022-10-07T21:04:33.450Z,15.69
2022-10-07T21:07:01.477Z,15.65
2022-10-07T21:09:28.182Z,15.62
2022-10-07T21:11:56.527Z,15.58
2022-10-07T21:14:23.233Z,15.48
2022-10-07T21:16:49.878Z,15.50
2022-10-07T21:19:17.009Z,15.45
2022-10-07T21:21:43.537Z,15.40
2022-10-07T21:24:10.172Z,15.36
2022-10-07T21:26:37.119Z,15.43
2022-10-07T21:29:06.931Z,15.42
2022-10-07T21:31:35.538Z,15.36
2022-10-07T21:34:07.511Z,15.33
2022-10-07T21:36:37.178Z,15.33
2022-10-07T21:39:04.667Z,15.22
2022-10-07T21:41:38.493Z,15.18
2022-10-07T21:44:10.779Z,15.17
2022-10-07T21:46:38.390Z,15.24
2022-10-07T21:49:06.143Z,15.23
2022-10-07T21:51:34.265Z,15.26
2022-10-07T21:54:01.837Z,15.22
2022-10-07T21:56:30.362Z,15.29
2022-10-07T21:58:59.740Z,15.28
2022-10-07T22:01:27.249Z,15.23
2022-10-07T22:03:56.133Z,15.10
2022-10-07T22:06:43.457Z,15.02
2022-10-07T22:09:11.040Z,15.07
2022-10-07T22:11:37.875Z,15.07
2022-10-07T22:14:07.555Z,15.10
2022-10-07T22:16:37.614Z,15.08
2022-10-07T22:19:05.301Z,15.05
2022-10-07T22:21:33.533Z,15.03
2022-10-07T22:24:02.878Z,15.00
2022-10-07T22:26:34.172Z,14.90
2022-10-07T22:29:01.236Z,14.78
2022-10-07T22:31:27.888Z,14.73
2022-10-07T22:33:57.230Z,14.75
2022-10-07T22:36:24.324Z,14.67
2022-10-07T22:38:50.947Z,14.77
2022-10-07T22:41:19.403Z,14.68
2022-10-07T22:43:47.508Z,14.69
2022-10-07T22:46:17.823Z,14.76
2022-10-07T22:48:48.438Z,14.82
2022-10-07T22:51:16.224Z,14.87
2022-10-07T22:53:48.036Z,14.76
2022-10-07T22:56:17.418Z,14.66
2022-10-07T22:58:48.912Z,14.54
2022-10-07T23:01:16.665Z,14.41
2022-10-07T23:03:44.109Z,14.34
2022-10-07T23:06:12.715Z,14.29
2022-10-07T23:08:39.703Z,14.20
2022-10-07T23:11:07.598Z,14.16
2022-10-07T23:13:35.974Z,14.10
2022-10-07T23:16:08.799Z,14.05
2022-10-07T23:18:35.420Z,14.01
2022-10-07T23:21:04.844Z,14.07
2022-10-07T23:23:36.294Z,14.13
2022-10-07T23:26:15.047Z,14.09
2022-10-07T23:28:41.889Z,14.09
2022-10-07T23:31:11.572Z,14.17
2022-10-07T23:33:38.278Z,14.15
2022-10-07T23:36:07.182Z,14.08
2022-10-07T23:38:34.225Z,14.06
2022-10-07T23:41:02.109Z,14.01
2022-10-07T23:43:31.039Z,14.02
2022-10-07T23:45:57.655Z,13.95
2022-10-07T23:48:24.331Z,14.05
2022-10-07T23:50:52.067Z,14.01
2022-10-07T23:53:19.935Z,13.89
2022-10-07T23:55:49.212Z,13.85
2022-10-07T23:58:17.613Z,14.02
